Siemreap, Cambodia

8:20 AM ICT on September 24, 2014 (GMT +0700)
Siem Reap | Change Station
CLOSE
Current Station
Airport
Location: Siemreap,
Elevation: 49 ft
Nearby Weather Stations

Elev 49 ft 13.37 °N, 103.85 °E | Updated 20 minutes ago

Clear
Clear
84 °F
Feels Like 96 °F
N
0
Wind Variable Wind from North

Today
High -- | Low -- °F
--% Chance of Precip.
Yesterday
High -- | Low -- °F
Precip. -- in
5:53 AM 5:59 PM
Waning Crescent, 0% visible
Pressure 29.80 in
Visibility -9999.0 miles
Clouds
Heat Index 96 °F
Dew Point 79 °F
Humidity 84%
Rainfall 0.00 in
Snow Depth Not available.
UV Not available.
Pollen Not available.
Air Quality Not available.
Flu Activity Not available.
METAR VDSR 240100Z 00000KT CAVOK 29/26 Q1009

More Conditions Fewer Conditions

Pressure 29.80 in
Visibility -9999.0 miles
Clouds
Heat Index 96 °F
Dew Point 79 °F
Humidity 84%
Rainfall 0.00 in
Snow Depth Not available.
UV Not available.
Pollen Not available.
Air Quality Not available.
Flu Activity Not available.
METAR VDSR 240100Z 00000KT CAVOK 29/26 Q1009

More Conditions Fewer Conditions

10-Day Weather Forecast

Almanac

Astronomy

Sep. 24, 2014 Rise Set
Actual Time 5:53 AM ICT 5:59 PM ICT
Civil Twilight 5:32 AM ICT 6:20 PM ICT
Nautical Twilight 5:07 AM ICT 6:45 PM ICT
Astronomical Twilight 4:43 AM ICT 7:10 PM ICT
Moon 5:41 AM ICT 5:59 PM ICT
Length of Visible Light 12h 48m
Length of Day
12h 05m
Tomorrow will be 0m 44s shorter.
Waning Crescent, 0% of the Moon is Illuminated
Sep 23
Waning Crescent
Sep 24
New
Oct 1
First Quarter
Oct 8
Full
Oct 15
Last Quarter

Yesterday's Extremes

Country Highs Country Lows

Community

WunderPhotos

Upload Photos

1,755,844 photos uploaded!

Nearby

Snow Depth

Not available.

Earthquake Activity

City Distance Mag. Time & Date
No recent earthquake activity has been reported nearby.
Minimum magnitude displayed is 2.5.

Coastal Water Temperatures

Place Temperature
No Stations Reporting

Nearby Weather Stations